createdAt,value
2022-11-14T00:01:32.684Z,3.10
2022-11-14T00:03:05.785Z,3.10
2022-11-14T00:04:38.521Z,3.10
2022-11-14T00:06:11.273Z,3.00
2022-11-14T00:07:45.789Z,3.10
2022-11-14T00:09:18.621Z,3.00
2022-11-14T00:10:51.968Z,3.00
2022-11-14T00:12:24.945Z,3.10
2022-11-14T00:13:57.646Z,3.00
2022-11-14T00:15:30.401Z,3.00
2022-11-14T00:17:03.186Z,3.00
2022-11-14T00:18:35.929Z,2.90
2022-11-14T00:20:09.566Z,2.90
2022-11-14T00:21:42.308Z,2.90
2022-11-14T00:23:16.408Z,2.80
2022-11-14T00:24:49.168Z,2.80
2022-11-14T00:26:21.881Z,2.80
2022-11-14T00:27:56.978Z,2.80
2022-11-14T00:29:29.661Z,2.70
2022-11-14T00:31:02.428Z,2.80
2022-11-14T00:32:35.113Z,2.70
2022-11-14T00:34:07.936Z,2.70
2022-11-14T00:35:40.678Z,2.60
2022-11-14T00:37:13.357Z,2.60
2022-11-14T00:38:47.413Z,2.60
2022-11-14T00:40:20.130Z,2.60
2022-11-14T00:41:52.885Z,2.50
2022-11-14T00:43:24.631Z,2.50
2022-11-14T00:44:57.308Z,2.50
2022-11-14T00:46:30.047Z,2.40
2022-11-14T00:48:02.807Z,2.40
2022-11-14T00:49:36.001Z,2.40
2022-11-14T00:51:08.924Z,2.40
2022-11-14T00:52:41.594Z,2.30
2022-11-14T00:54:15.657Z,2.30
2022-11-14T00:55:48.354Z,2.30
2022-11-14T00:57:21.281Z,2.30
2022-11-14T00:58:52.987Z,2.30
2022-11-14T01:00:25.698Z,2.30
2022-11-14T01:01:58.103Z,2.30
2022-11-14T01:03:30.944Z,2.30
2022-11-14T01:05:03.713Z,2.30
2022-11-14T01:06:35.439Z,2.30
2022-11-14T01:08:08.175Z,2.30
2022-11-14T01:09:42.206Z,2.30
2022-11-14T01:11:17.122Z,2.30
2022-11-14T01:12:49.972Z,3.00
2022-11-14T01:14:22.763Z,2.30
2022-11-14T01:15:55.888Z,2.20
2022-11-14T01:17:29.231Z,2.20
2022-11-14T01:19:01.943Z,2.20
2022-11-14T01:20:33.748Z,2.20
2022-11-14T01:22:06.842Z,2.20
2022-11-14T01:23:39.935Z,2.20
2022-11-14T01:25:14.111Z,2.20
2022-11-14T01:26:46.832Z,2.20
2022-11-14T01:28:20.425Z,2.20
2022-11-14T01:29:53.099Z,2.20
2022-11-14T01:31:26.237Z,2.20
2022-11-14T01:32:58.925Z,2.20
2022-11-14T01:34:31.825Z,2.20
2022-11-14T01:36:04.795Z,2.20
2022-11-14T01:37:36.535Z,2.20
2022-11-14T01:39:09.362Z,2.20
2022-11-14T01:40:42.987Z,2.20
2022-11-14T01:42:17.597Z,2.20
2022-11-14T01:43:50.543Z,2.20
2022-11-14T01:45:47.911Z,2.20
2022-11-14T01:47:21.999Z,2.20
2022-11-14T01:48:57.130Z,2.20
2022-11-14T01:50:29.844Z,2.20
2022-11-14T01:52:04.399Z,2.20
2022-11-14T01:53:37.193Z,2.10
2022-11-14T01:55:10.709Z,2.20
2022-11-14T01:56:47.803Z,2.10
2022-11-14T01:58:20.251Z,2.10
2022-11-14T01:59:54.131Z,2.00
2022-11-14T02:01:27.590Z,2.00
2022-11-14T02:03:01.287Z,2.00
2022-11-14T02:04:35.553Z,1.90
2022-11-14T02:06:08.920Z,1.90
2022-11-14T02:07:42.129Z,1.90
2022-11-14T02:09:14.878Z,2.60
2022-11-14T02:10:47.579Z,1.80
2022-11-14T02:12:21.766Z,1.70
2022-11-14T02:13:54.441Z,1.70
2022-11-14T02:15:27.939Z,1.70
2022-11-14T02:17:27.983Z,1.70
2022-11-14T02:18:53.542Z,1.70
2022-11-14T02:20:28.764Z,1.80
2022-11-14T02:22:01.495Z,1.80
2022-11-14T02:23:34.446Z,1.80
2022-11-14T02:25:07.644Z,1.80
2022-11-14T02:26:41.455Z,1.80
2022-11-14T02:28:14.168Z,1.70
2022-11-14T02:29:46.920Z,1.60
2022-11-14T02:31:19.679Z,1.60
2022-11-14T02:34:45.390Z,1.60
2022-11-14T02:36:19.423Z,1.60
2022-11-14T02:37:51.143Z,1.60
2022-11-14T02:39:23.926Z,1.60
2022-11-14T02:40:56.716Z,1.60
2022-11-14T02:42:29.489Z,1.60
2022-11-14T02:44:02.232Z,1.60
2022-11-14T02:45:33.977Z,1.70
2022-11-14T02:47:06.761Z,1.60
2022-11-14T02:48:41.648Z,1.60
2022-11-14T02:50:14.345Z,1.60
2022-11-14T02:51:48.390Z,1.60
2022-11-14T02:53:21.060Z,1.70
2022-11-14T02:54:54.787Z,1.70
2022-11-14T02:56:27.745Z,1.70
2022-11-14T02:58:00.438Z,1.70
2022-11-14T02:59:32.142Z,1.70
2022-11-14T03:01:20.147Z,1.80
2022-11-14T03:02:54.143Z,1.70
2022-11-14T03:04:26.892Z,1.70
2022-11-14T03:06:00.227Z,1.60
2022-11-14T03:07:34.366Z,1.60
2022-11-14T03:09:07.239Z,1.60
2022-11-14T03:10:39.938Z,1.60
2022-11-14T03:12:12.655Z,1.60
2022-11-14T03:13:44.349Z,1.60
2022-11-14T03:15:17.112Z,1.50
2022-11-14T03:16:49.814Z,1.50
2022-11-14T03:18:22.629Z,1.50
2022-11-14T03:19:55.336Z,1.50
2022-11-14T03:21:28.046Z,1.50
2022-11-14T03:23:02.259Z,1.60
2022-11-14T03:24:33.994Z,1.40
2022-11-14T03:26:08.227Z,1.50
2022-11-14T03:27:41.042Z,1.40
2022-11-14T03:29:12.985Z,1.50
2022-11-14T03:30:47.246Z,1.50
2022-11-14T03:32:19.009Z,1.50
2022-11-14T03:33:51.834Z,1.50
2022-11-14T03:35:24.605Z,1.40
2022-11-14T03:36:57.319Z,1.40
2022-11-14T03:38:32.110Z,1.50
2022-11-14T03:40:05.525Z,1.40
2022-11-14T03:41:38.254Z,1.40
2022-11-14T03:43:11.170Z,1.50
2022-11-14T03:44:43.962Z,1.40
2022-11-14T03:46:15.763Z,1.50
2022-11-14T03:47:48.669Z,1.50
2022-11-14T03:49:20.536Z,1.40
2022-11-14T03:50:53.348Z,1.40
2022-11-14T03:52:26.831Z,1.40
2022-11-14T03:53:59.994Z,1.50
2022-11-14T03:55:32.723Z,1.50
2022-11-14T03:57:04.619Z,1.40
2022-11-14T03:58:37.551Z,1.40
2022-11-14T04:00:11.124Z,1.40
2022-11-14T04:01:43.865Z,1.40
2022-11-14T04:03:16.715Z,1.30
2022-11-14T04:04:51.872Z,1.30
2022-11-14T04:06:24.661Z,1.30
2022-11-14T04:07:56.499Z,1.20
2022-11-14T04:09:30.704Z,1.30
2022-11-14T04:11:03.494Z,1.30
2022-11-14T04:12:36.425Z,1.30
2022-11-14T04:14:08.208Z,1.30
2022-11-14T04:15:41.187Z,1.30
2022-11-14T04:17:14.071Z,1.30
2022-11-14T04:18:46.778Z,1.30
2022-11-14T04:20:18.707Z,1.40
2022-11-14T04:21:51.403Z,1.50
2022-11-14T04:23:24.186Z,1.50
2022-11-14T04:24:57.374Z,1.50
2022-11-14T04:26:30.121Z,1.60
2022-11-14T04:28:01.819Z,1.60
2022-11-14T04:29:34.651Z,1.60
2022-11-14T04:31:07.404Z,1.90
2022-11-14T04:32:40.151Z,1.80
2022-11-14T04:34:13.056Z,1.80
2022-11-14T04:35:44.772Z,1.80
2022-11-14T04:37:17.486Z,1.80
2022-11-14T04:38:50.566Z,1.80
2022-11-14T04:40:24.708Z,1.80
2022-11-14T04:41:57.434Z,1.90
2022-11-14T04:43:30.107Z,1.90
2022-11-14T04:45:02.876Z,1.90
2022-11-14T04:46:35.812Z,1.90
2022-11-14T04:48:08.712Z,2.30
2022-11-14T04:49:41.421Z,2.40
2022-11-14T04:51:14.319Z,2.00
2022-11-14T04:52:46.992Z,2.10
2022-11-14T04:54:22.583Z,2.00
2022-11-14T04:55:56.763Z,2.00
2022-11-14T04:57:28.778Z,2.00
2022-11-14T04:59:01.519Z,2.00
2022-11-14T05:00:34.225Z,2.10
2022-11-14T05:02:07.006Z,2.00
2022-11-14T05:03:39.835Z,2.00
2022-11-14T05:05:12.535Z,2.00
2022-11-14T05:06:44.451Z,2.00
2022-11-14T05:08:17.203Z,2.00
2022-11-14T05:09:49.928Z,2.00
2022-11-14T05:11:28.065Z,2.00
2022-11-14T05:13:02.115Z,2.00
2022-11-14T05:14:33.921Z,2.00
2022-11-14T05:16:07.105Z,1.90
2022-11-14T05:17:38.892Z,1.90
2022-11-14T05:19:11.626Z,2.00
2022-11-14T05:20:44.322Z,2.00
2022-11-14T05:22:17.101Z,2.00
2022-11-14T05:23:49.820Z,2.00
2022-11-14T05:25:22.919Z,2.00
2022-11-14T05:26:57.776Z,2.00
2022-11-14T05:28:29.876Z,2.10
2022-11-14T05:30:02.731Z,2.10
2022-11-14T05:31:35.547Z,2.10
2022-11-14T05:33:08.507Z,2.10
2022-11-14T05:34:41.242Z,2.10
2022-11-14T05:36:17.537Z,2.10
2022-11-14T05:37:50.231Z,2.20
2022-11-14T05:39:22.021Z,2.20
2022-11-14T05:40:54.850Z,2.20
2022-11-14T05:42:29.622Z,2.20
2022-11-14T05:44:04.742Z,2.20
2022-11-14T05:45:37.483Z,2.20
2022-11-14T05:47:10.199Z,2.30
2022-11-14T05:48:43.436Z,2.20
2022-11-14T05:50:16.295Z,2.20
2022-11-14T05:51:49.054Z,2.30
2022-11-14T05:53:21.842Z,2.20
2022-11-14T05:54:54.596Z,2.20
2022-11-14T05:56:28.193Z,2.10
2022-11-14T05:58:02.239Z,2.20
2022-11-14T05:59:35.037Z,2.30
2022-11-14T06:01:08.940Z,2.30
2022-11-14T06:02:41.759Z,2.30
2022-11-14T06:04:14.764Z,2.30
2022-11-14T06:05:47.532Z,2.30
2022-11-14T06:07:20.695Z,2.20
2022-11-14T06:08:54.141Z,2.20
2022-11-14T06:10:26.953Z,2.20
2022-11-14T06:11:59.812Z,2.10
2022-11-14T06:13:34.227Z,2.10
2022-11-14T06:15:07.430Z,2.10
2022-11-14T06:16:40.343Z,2.10
2022-11-14T06:18:13.264Z,2.10
2022-11-14T06:19:46.024Z,2.10
2022-11-14T06:21:20.251Z,2.10
2022-11-14T06:22:54.910Z,2.10
2022-11-14T06:24:27.641Z,2.10
2022-11-14T06:26:01.469Z,2.20
2022-11-14T06:27:34.284Z,2.20
2022-11-14T06:29:08.654Z,2.20
2022-11-14T06:30:41.363Z,2.20
2022-11-14T06:32:14.223Z,2.30
2022-11-14T06:33:47.203Z,2.30
2022-11-14T06:35:19.934Z,2.20
2022-11-14T06:36:52.822Z,2.30
2022-11-14T06:38:25.588Z,2.30
2022-11-14T06:39:58.236Z,2.30
2022-11-14T06:41:31.202Z,2.30
2022-11-14T06:43:03.958Z,2.30
2022-11-14T06:44:38.019Z,2.30
2022-11-14T06:46:12.025Z,2.30
2022-11-14T06:47:44.759Z,2.30
2022-11-14T06:49:17.496Z,2.30
2022-11-14T06:50:52.558Z,2.30
2022-11-14T06:52:26.560Z,2.40
2022-11-14T06:53:59.475Z,2.40
2022-11-14T06:55:32.180Z,2.40
2022-11-14T06:57:05.048Z,2.50
2022-11-14T06:58:39.142Z,2.50
2022-11-14T07:00:16.143Z,2.50
2022-11-14T07:01:48.878Z,2.50
2022-11-14T07:03:21.739Z,2.50
2022-11-14T07:04:54.494Z,2.50
2022-11-14T07:06:28.159Z,2.50
2022-11-14T07:08:00.826Z,2.50
2022-11-14T07:09:33.669Z,2.60
2022-11-14T07:11:07.240Z,2.60
2022-11-14T07:12:39.962Z,2.60
2022-11-14T07:14:12.798Z,2.60
2022-11-14T07:15:52.068Z,2.70
2022-11-14T07:17:29.821Z,2.70
2022-11-14T07:19:04.933Z,2.70
2022-11-14T07:20:37.598Z,2.70
2022-11-14T07:22:10.297Z,2.70
2022-11-14T07:23:43.090Z,2.70
2022-11-14T07:25:16.745Z,2.80
2022-11-14T07:26:49.497Z,2.80
2022-11-14T07:28:22.206Z,2.80
2022-11-14T07:29:54.961Z,2.80
2022-11-14T07:31:29.062Z,2.90
2022-11-14T07:33:01.807Z,2.90
2022-11-14T07:34:34.500Z,2.90
2022-11-14T07:36:07.716Z,3.00
2022-11-14T07:37:40.450Z,3.00
2022-11-14T07:39:13.166Z,3.00
2022-11-14T07:40:59.068Z,3.00
2022-11-14T07:42:32.517Z,3.10
2022-11-14T07:44:05.406Z,3.20
2022-11-14T07:45:38.077Z,3.20
2022-11-14T07:47:12.178Z,3.20
2022-11-14T07:48:45.320Z,3.30
2022-11-14T07:50:20.489Z,3.30
2022-11-14T07:51:53.397Z,3.40
2022-11-14T07:53:26.162Z,3.40
2022-11-14T07:54:58.949Z,3.50
2022-11-14T07:56:31.779Z,3.50
2022-11-14T07:58:04.652Z,3.50
2022-11-14T07:59:37.332Z,3.60
2022-11-14T08:01:11.482Z,3.60
2022-11-14T08:02:46.516Z,3.70
2022-11-14T08:04:19.211Z,3.70
2022-11-14T08:05:51.930Z,3.80
2022-11-14T08:07:24.760Z,3.90
2022-11-14T08:08:57.565Z,3.90
2022-11-14T08:10:33.611Z,3.90
2022-11-14T08:12:07.380Z,4.00
2022-11-14T08:13:40.172Z,4.10
2022-11-14T08:15:13.890Z,4.10
2022-11-14T08:16:46.627Z,4.10
2022-11-14T08:18:20.900Z,4.20
2022-11-14T08:19:53.683Z,4.20
2022-11-14T08:21:26.456Z,4.30
2022-11-14T08:23:02.717Z,4.30
2022-11-14T08:24:35.470Z,4.40
2022-11-14T08:26:08.197Z,4.40
2022-11-14T08:27:41.103Z,4.50
2022-11-14T08:29:13.870Z,4.50
2022-11-14T08:30:46.583Z,4.70
2022-11-14T08:32:19.455Z,4.70
2022-11-14T08:33:53.855Z,4.70
2022-11-14T08:35:26.635Z,4.80
2022-11-14T08:36:59.494Z,4.90
2022-11-14T08:38:33.194Z,5.00
2022-11-14T08:40:06.887Z,5.00
2022-11-14T08:41:39.654Z,5.10
2022-11-14T08:43:12.366Z,5.20
2022-11-14T08:44:50.782Z,5.20
2022-11-14T08:46:24.660Z,5.20
2022-11-14T08:47:57.457Z,5.30
2022-11-14T08:49:31.703Z,5.40
2022-11-14T08:51:05.138Z,5.40
2022-11-14T08:52:37.950Z,5.40
2022-11-14T08:54:10.788Z,5.50
2022-11-14T08:55:44.853Z,5.40
2022-11-14T08:57:17.595Z,5.50
2022-11-14T08:58:50.347Z,5.50
2022-11-14T09:00:23.328Z,5.60
2022-11-14T09:01:56.110Z,5.60
2022-11-14T09:03:29.008Z,5.70
2022-11-14T09:05:03.355Z,5.70
2022-11-14T09:06:36.070Z,5.80
2022-11-14T09:08:09.001Z,5.90
2022-11-14T09:09:41.696Z,5.90
2022-11-14T09:11:18.929Z,6.00
2022-11-14T09:12:55.884Z,6.10
2022-11-14T09:14:28.707Z,6.10
2022-11-14T09:16:01.768Z,6.20
2022-11-14T09:17:35.289Z,6.20
2022-11-14T09:19:08.032Z,6.30
2022-11-14T09:20:42.202Z,6.30
2022-11-14T09:22:15.081Z,6.40
2022-11-14T09:23:47.901Z,6.50
2022-11-14T09:25:21.876Z,6.60
2022-11-14T09:26:56.917Z,6.60
2022-11-14T09:28:29.940Z,6.70
2022-11-14T09:30:02.770Z,6.70
2022-11-14T09:31:35.611Z,6.80
2022-11-14T09:33:11.684Z,6.90
2022-11-14T09:34:45.659Z,7.00
2022-11-14T09:36:20.013Z,7.00
2022-11-14T09:37:59.647Z,7.00
2022-11-14T09:39:32.347Z,7.10
2022-11-14T09:41:15.626Z,7.20
2022-11-14T09:42:55.302Z,7.20
2022-11-14T09:44:41.504Z,7.30
2022-11-14T09:46:18.595Z,7.40
2022-11-14T09:47:52.459Z,7.50
2022-11-14T09:49:27.526Z,7.50
2022-11-14T09:51:07.402Z,7.60
2022-11-14T09:52:45.064Z,7.70
2022-11-14T09:54:21.578Z,7.70
2022-11-14T09:55:54.288Z,7.60
2022-11-14T09:57:27.343Z,7.80
2022-11-14T09:59:00.185Z,7.90
2022-11-14T10:00:39.536Z,7.90
2022-11-14T10:02:20.522Z,8.00
2022-11-14T10:03:57.814Z,8.00
2022-11-14T10:05:37.805Z,8.10
2022-11-14T10:07:16.578Z,8.20
2022-11-14T10:08:56.599Z,8.30
2022-11-14T10:10:38.837Z,8.30
2022-11-14T10:12:15.243Z,8.40
2022-11-14T10:13:54.128Z,8.50
2022-11-14T10:15:33.711Z,8.50
2022-11-14T10:17:13.401Z,8.60
2022-11-14T10:18:51.339Z,8.60
2022-11-14T10:20:28.018Z,8.70
2022-11-14T10:22:06.378Z,8.80
2022-11-14T10:23:45.349Z,8.90
2022-11-14T10:25:23.472Z,8.90
2022-11-14T10:27:01.595Z,9.00
2022-11-14T10:28:39.664Z,9.20
2022-11-14T10:30:13.634Z,9.20
2022-11-14T10:31:52.537Z,9.30
2022-11-14T10:33:32.014Z,9.30
2022-11-14T10:35:05.833Z,9.40
2022-11-14T10:36:45.703Z,9.50
2022-11-14T10:38:21.194Z,9.60
2022-11-14T10:39:55.340Z,9.70
2022-11-14T10:41:55.043Z,9.80
2022-11-14T10:43:26.089Z,9.90
2022-11-14T10:45:01.594Z,10.00
2022-11-14T10:46:37.168Z,10.10
2022-11-14T10:48:11.664Z,10.10
2022-11-14T10:49:46.055Z,10.20
2022-11-14T10:51:21.949Z,10.30
2022-11-14T10:52:57.660Z,10.40
2022-11-14T10:54:33.745Z,10.50
2022-11-14T10:56:06.789Z,10.50
2022-11-14T10:57:41.077Z,10.50
2022-11-14T10:59:13.855Z,10.60
2022-11-14T11:00:46.699Z,10.60
2022-11-14T11:02:19.491Z,10.70
2022-11-14T11:03:52.353Z,10.80
2022-11-14T11:05:26.723Z,10.90
2022-11-14T11:07:34.605Z,10.80
2022-11-14T11:09:26.599Z,10.90
2022-11-14T11:11:17.020Z,11.00
2022-11-14T11:12:51.934Z,11.10
2022-11-14T11:14:24.746Z,11.10
2022-11-14T11:15:59.165Z,11.20
2022-11-14T11:17:38.504Z,11.20
2022-11-14T11:19:23.380Z,11.20
2022-11-14T11:21:03.472Z,11.30
2022-11-14T11:22:37.792Z,11.30
2022-11-14T11:24:10.565Z,11.40
2022-11-14T11:25:43.285Z,11.50
2022-11-14T11:27:22.622Z,11.50
2022-11-14T11:29:16.540Z,11.60
2022-11-14T11:30:56.443Z,11.60
2022-11-14T11:32:29.181Z,11.60
2022-11-14T11:34:04.039Z,11.70
2022-11-14T11:35:37.058Z,11.70
2022-11-14T11:37:14.915Z,11.70
2022-11-14T11:38:48.347Z,11.80
2022-11-14T11:40:22.382Z,11.80
2022-11-14T11:42:12.500Z,11.90
2022-11-14T11:43:46.957Z,11.90
2022-11-14T11:45:21.670Z,12.00
2022-11-14T11:46:56.564Z,12.00
2022-11-14T11:48:33.406Z,12.00
2022-11-14T11:50:13.101Z,12.00
2022-11-14T11:51:46.910Z,12.10
2022-11-14T11:53:23.239Z,12.10
2022-11-14T11:55:00.332Z,12.10
2022-11-14T11:56:33.569Z,12.00
2022-11-14T11:58:07.413Z,12.10
2022-11-14T11:59:43.261Z,12.00
2022-11-14T12:01:17.852Z,12.00
2022-11-14T12:02:52.233Z,12.00
2022-11-14T12:04:25.707Z,12.00
2022-11-14T12:06:03.930Z,12.00
2022-11-14T12:07:40.375Z,12.10
2022-11-14T12:09:16.220Z,12.10
2022-11-14T12:10:49.488Z,12.20
2022-11-14T12:12:26.864Z,12.20
2022-11-14T12:14:19.167Z,12.20
2022-11-14T12:15:57.854Z,12.20
2022-11-14T12:17:52.923Z,12.30
2022-11-14T12:19:35.512Z,12.30
2022-11-14T12:21:17.099Z,12.30
2022-11-14T12:23:00.140Z,12.30
2022-11-14T12:24:59.553Z,12.40
2022-11-14T12:26:44.060Z,12.40
2022-11-14T12:28:23.235Z,12.40
2022-11-14T12:30:09.391Z,12.40
2022-11-14T12:31:42.789Z,12.40
2022-11-14T12:33:21.051Z,12.40
2022-11-14T12:34:54.028Z,12.50
2022-11-14T12:36:29.674Z,12.50
2022-11-14T12:38:04.862Z,12.50
2022-11-14T12:39:38.272Z,12.60
2022-11-14T12:41:11.604Z,12.60
2022-11-14T12:42:47.215Z,12.60
2022-11-14T12:44:32.833Z,12.60
2022-11-14T12:46:08.440Z,12.60
2022-11-14T12:48:01.120Z,12.60
2022-11-14T12:49:39.205Z,12.60
2022-11-14T12:51:31.208Z,12.60
2022-11-14T12:53:04.339Z,12.60
2022-11-14T12:54:44.261Z,12.60
2022-11-14T12:56:25.224Z,12.70
2022-11-14T12:58:02.830Z,12.80
2022-11-14T12:59:40.163Z,12.70
2022-11-14T13:01:21.437Z,12.70
2022-11-14T13:03:01.292Z,12.80
2022-11-14T13:04:42.841Z,12.70
2022-11-14T13:06:22.876Z,12.80
2022-11-14T13:08:05.677Z,12.80
2022-11-14T13:09:42.725Z,12.80
2022-11-14T13:11:54.716Z,12.80
2022-11-14T13:13:45.128Z,12.80
2022-11-14T13:15:48.572Z,12.80
2022-11-14T13:17:44.532Z,12.90
2022-11-14T13:19:36.702Z,13.00
2022-11-14T13:21:44.749Z,13.00
2022-11-14T13:23:36.896Z,13.00
2022-11-14T13:25:16.960Z,13.00
2022-11-14T13:26:52.874Z,13.00
2022-11-14T13:28:44.283Z,13.00
2022-11-14T13:30:17.746Z,13.00
2022-11-14T13:31:52.428Z,13.00
2022-11-14T13:33:40.168Z,13.00
2022-11-14T13:35:14.520Z,12.90
2022-11-14T13:36:54.119Z,12.90
2022-11-14T13:38:46.196Z,12.90
2022-11-14T13:40:22.331Z,12.90
2022-11-14T13:42:12.939Z,12.90
2022-11-14T13:43:52.800Z,12.90
2022-11-14T13:45:46.388Z,12.90
2022-11-14T13:47:27.688Z,12.80
2022-11-14T13:49:08.490Z,12.90
2022-11-14T13:50:43.027Z,12.80
2022-11-14T13:52:17.550Z,12.80
2022-11-14T13:53:50.303Z,12.80
2022-11-14T13:55:23.869Z,12.70
2022-11-14T13:57:02.936Z,12.80
2022-11-14T13:58:43.519Z,12.80
2022-11-14T14:00:20.672Z,12.80
2022-11-14T14:02:04.765Z,12.80
2022-11-14T14:03:41.631Z,12.80
2022-11-14T14:05:20.938Z,12.50
2022-11-14T14:06:58.774Z,12.80
2022-11-14T14:08:42.964Z,12.90
2022-11-14T14:10:19.956Z,12.80
2022-11-14T14:12:10.316Z,12.80
2022-11-14T14:13:53.978Z,12.80
2022-11-14T14:15:31.721Z,12.70
2022-11-14T14:17:09.536Z,12.70
2022-11-14T14:18:46.108Z,12.70
2022-11-14T14:20:22.996Z,12.60
2022-11-14T14:21:58.574Z,12.60
2022-11-14T14:23:35.881Z,12.50
2022-11-14T14:25:17.418Z,12.50
2022-11-14T14:26:58.000Z,12.40
2022-11-14T14:28:34.902Z,12.30
2022-11-14T14:30:10.012Z,12.20
2022-11-14T14:31:43.449Z,12.20
2022-11-14T14:33:17.747Z,12.10
2022-11-14T14:34:50.444Z,12.00
2022-11-14T14:36:25.577Z,12.00
2022-11-14T14:37:58.756Z,11.90
2022-11-14T14:39:31.533Z,11.80
2022-11-14T14:41:05.768Z,11.70
2022-11-14T14:42:40.347Z,11.60
2022-11-14T14:44:18.976Z,11.60
2022-11-14T14:45:52.999Z,11.50
2022-11-14T14:47:34.276Z,11.40
2022-11-14T14:49:07.261Z,11.40
2022-11-14T14:50:41.580Z,11.40
2022-11-14T14:52:21.200Z,11.30
2022-11-14T14:53:54.163Z,11.20
2022-11-14T14:55:28.185Z,11.20
2022-11-14T14:57:03.459Z,11.10
2022-11-14T14:58:38.283Z,11.20
2022-11-14T15:00:20.887Z,11.10
2022-11-14T15:01:55.783Z,11.10
2022-11-14T15:03:36.441Z,11.10
2022-11-14T15:05:09.965Z,11.20
2022-11-14T15:06:45.847Z,11.20
2022-11-14T15:08:18.617Z,11.20
2022-11-14T15:09:54.750Z,11.30
2022-11-14T15:11:32.411Z,11.30
2022-11-14T15:13:07.082Z,11.30
2022-11-14T15:14:39.956Z,11.40
2022-11-14T15:16:13.209Z,11.80
2022-11-14T15:17:46.429Z,11.50
2022-11-14T15:19:20.388Z,11.50
2022-11-14T15:21:09.901Z,11.50
2022-11-14T15:22:42.641Z,11.50
2022-11-14T15:24:16.833Z,11.50
2022-11-14T15:25:49.589Z,11.50
2022-11-14T15:27:22.327Z,11.60
2022-11-14T15:29:05.630Z,11.70
2022-11-14T15:30:39.129Z,11.60
2022-11-14T15:32:19.017Z,11.60
2022-11-14T15:34:08.368Z,11.60
2022-11-14T15:35:41.571Z,11.60
2022-11-14T15:37:23.994Z,11.50
2022-11-14T15:39:01.095Z,11.40
2022-11-14T15:40:39.209Z,11.50
2022-11-14T15:42:15.758Z,11.40
2022-11-14T15:43:50.422Z,11.30
2022-11-14T15:45:25.237Z,11.20
2022-11-14T15:46:58.085Z,11.10
2022-11-14T15:48:31.188Z,11.10
2022-11-14T15:50:05.309Z,11.00
2022-11-14T15:51:45.600Z,11.00
2022-11-14T15:53:19.933Z,10.90
2022-11-14T15:54:52.680Z,10.80
2022-11-14T15:56:25.405Z,10.70
2022-11-14T15:58:26.143Z,10.60
2022-11-14T15:59:50.836Z,10.50
2022-11-14T16:01:25.968Z,10.50
2022-11-14T16:02:59.137Z,10.40
2022-11-14T16:04:33.656Z,10.40
2022-11-14T16:06:06.483Z,10.40
2022-11-14T16:07:39.175Z,10.30
2022-11-14T16:09:15.557Z,10.30
2022-11-14T16:10:48.713Z,10.20
2022-11-14T16:12:21.473Z,10.20
2022-11-14T16:13:54.533Z,10.20
2022-11-14T16:15:27.333Z,10.20
2022-11-14T16:17:01.379Z,10.10
2022-11-14T16:18:34.093Z,10.10
2022-11-14T16:20:07.802Z,10.00
2022-11-14T16:21:40.624Z,10.00
2022-11-14T16:23:14.368Z,9.90
2022-11-14T16:24:47.090Z,9.90
2022-11-14T16:26:19.856Z,9.80
2022-11-14T16:27:52.857Z,9.70
2022-11-14T16:29:25.915Z,9.70
2022-11-14T16:30:58.617Z,9.70
2022-11-14T16:32:32.751Z,9.70
2022-11-14T16:34:08.391Z,9.60
2022-11-14T16:35:41.414Z,9.60
2022-11-14T16:37:14.825Z,9.60
2022-11-14T16:38:51.991Z,9.50
2022-11-14T16:40:27.503Z,9.40
2022-11-14T16:42:01.149Z,9.40
2022-11-14T16:43:33.896Z,9.40
2022-11-14T16:45:07.254Z,9.40
2022-11-14T16:46:40.015Z,9.40
2022-11-14T16:48:14.354Z,9.30
2022-11-14T16:49:47.135Z,9.30
2022-11-14T16:51:47.207Z,9.30
2022-11-14T16:53:12.619Z,9.30
2022-11-14T16:54:45.359Z,9.30
2022-11-14T16:56:41.554Z,9.20
2022-11-14T16:58:14.722Z,9.20
2022-11-14T16:59:47.917Z,9.20
2022-11-14T17:01:21.504Z,9.10
2022-11-14T17:02:54.585Z,9.00
2022-11-14T17:04:29.035Z,9.00
2022-11-14T17:06:02.010Z,8.90
2022-11-14T17:07:34.962Z,8.90
2022-11-14T17:09:07.856Z,8.90
2022-11-14T17:10:41.702Z,8.90
2022-11-14T17:12:14.584Z,8.90
2022-11-14T17:13:47.375Z,8.90
2022-11-14T17:15:20.086Z,8.90
2022-11-14T17:16:53.134Z,9.00
2022-11-14T17:18:25.921Z,8.90
2022-11-14T17:20:00.239Z,8.90
2022-11-14T17:21:33.428Z,8.90
2022-11-14T17:23:06.285Z,9.00
2022-11-14T17:24:39.065Z,9.00
2022-11-14T17:26:13.713Z,9.00
2022-11-14T17:27:48.903Z,9.10
2022-11-14T17:29:21.694Z,9.10
2022-11-14T17:30:54.463Z,9.10
2022-11-14T17:32:27.175Z,9.00
2022-11-14T17:34:01.120Z,9.00
2022-11-14T17:35:37.246Z,8.90
2022-11-14T17:37:10.081Z,8.90
2022-11-14T17:38:42.866Z,8.90
2022-11-14T17:40:16.064Z,8.90
2022-11-14T17:41:48.890Z,8.90
2022-11-14T17:43:21.636Z,8.90
2022-11-14T17:44:54.515Z,8.80
2022-11-14T17:46:27.350Z,8.80
2022-11-14T17:48:00.161Z,8.70
2022-11-14T17:49:33.098Z,8.70
2022-11-14T17:51:09.425Z,8.60
2022-11-14T17:52:42.621Z,8.60
2022-11-14T17:54:15.397Z,8.60
2022-11-14T17:55:48.302Z,8.50
2022-11-14T17:57:21.080Z,8.50
2022-11-14T17:58:54.399Z,8.50
2022-11-14T18:00:27.265Z,8.50
2022-11-14T18:02:00.316Z,8.40
2022-11-14T18:03:33.207Z,8.40
2022-11-14T18:05:06.396Z,8.40
2022-11-14T18:06:40.570Z,8.40
2022-11-14T18:08:13.618Z,8.40
2022-11-14T18:09:46.428Z,8.30
2022-11-14T18:11:20.407Z,8.30
2022-11-14T18:12:53.151Z,8.20
2022-11-14T18:14:25.924Z,8.20
2022-11-14T18:16:01.688Z,8.10
2022-11-14T18:17:34.405Z,8.10
2022-11-14T18:19:07.766Z,8.00
2022-11-14T18:20:40.582Z,8.10
2022-11-14T18:22:14.751Z,8.00
2022-11-14T18:23:51.301Z,8.10
2022-11-14T18:25:24.014Z,8.00
2022-11-14T18:26:56.860Z,8.00
2022-11-14T18:28:29.791Z,8.00
2022-11-14T18:30:13.726Z,8.00
2022-11-14T18:31:55.553Z,8.00
2022-11-14T18:33:28.302Z,7.90
2022-11-14T18:35:01.159Z,7.90
2022-11-14T18:36:34.027Z,8.00
2022-11-14T18:38:08.117Z,7.90
2022-11-14T18:39:40.833Z,7.90
2022-11-14T18:41:16.087Z,7.90
2022-11-14T18:42:48.918Z,7.90
2022-11-14T18:44:24.153Z,7.90
2022-11-14T18:45:56.865Z,7.90
2022-11-14T18:47:29.939Z,7.90
2022-11-14T18:49:02.699Z,7.80
2022-11-14T18:50:35.543Z,7.80
2022-11-14T18:52:14.263Z,7.80
2022-11-14T18:53:51.401Z,7.70
2022-11-14T18:55:24.169Z,7.70
2022-11-14T18:56:57.144Z,7.70
2022-11-14T18:58:30.087Z,7.70
2022-11-14T19:00:03.393Z,7.60
2022-11-14T19:01:36.718Z,7.60
2022-11-14T19:03:10.977Z,7.60
2022-11-14T19:04:43.874Z,7.60
2022-11-14T19:06:16.933Z,7.60
2022-11-14T19:07:52.520Z,7.70
2022-11-14T19:09:27.138Z,7.60
2022-11-14T19:11:01.682Z,7.60
2022-11-14T19:12:33.477Z,7.60
2022-11-14T19:14:07.097Z,7.60
2022-11-14T19:15:40.753Z,7.60
2022-11-14T19:17:14.410Z,7.60
2022-11-14T19:18:47.146Z,7.70
2022-11-14T19:20:20.065Z,7.60
2022-11-14T19:21:52.955Z,7.60
2022-11-14T19:23:25.893Z,7.60
2022-11-14T19:25:00.142Z,7.60
2022-11-14T19:26:33.089Z,7.70
2022-11-14T19:28:05.975Z,7.70
2022-11-14T19:29:39.133Z,7.70
2022-11-14T19:31:12.389Z,7.70
2022-11-14T19:32:45.584Z,7.60
2022-11-14T19:34:18.609Z,7.60
2022-11-14T19:35:51.826Z,7.60
2022-11-14T19:37:25.251Z,7.60
2022-11-14T19:38:58.652Z,7.60
2022-11-14T19:40:32.837Z,7.50
2022-11-14T19:42:05.646Z,7.50
2022-11-14T19:43:39.066Z,7.50
2022-11-14T19:45:12.230Z,7.50
2022-11-14T19:46:47.805Z,7.50
2022-11-14T19:48:21.080Z,7.40
2022-11-14T19:49:54.269Z,7.40
2022-11-14T19:51:27.321Z,7.30
2022-11-14T19:53:00.128Z,7.30
2022-11-14T19:54:32.998Z,7.30
2022-11-14T19:56:08.576Z,7.30
2022-11-14T19:57:41.479Z,7.30
2022-11-14T19:59:16.233Z,7.30
2022-11-14T20:00:51.849Z,7.30
2022-11-14T20:02:25.776Z,7.30
2022-11-14T20:03:59.592Z,7.30
2022-11-14T20:05:33.171Z,7.30
2022-11-14T20:07:06.024Z,7.30
2022-11-14T20:08:38.940Z,7.30
2022-11-14T20:10:11.847Z,7.40
2022-11-14T20:11:46.016Z,7.40
2022-11-14T20:13:18.832Z,7.40
2022-11-14T20:14:51.799Z,7.40
2022-11-14T20:16:25.477Z,7.40
2022-11-14T20:17:58.389Z,7.40
2022-11-14T20:19:31.412Z,7.40
2022-11-14T20:21:04.546Z,7.40
2022-11-14T20:22:37.427Z,7.30
2022-11-14T20:24:11.497Z,7.30
2022-11-14T20:25:44.391Z,7.20
2022-11-14T20:27:18.650Z,7.20
2022-11-14T20:28:53.828Z,7.10
2022-11-14T20:30:26.800Z,7.10
2022-11-14T20:31:59.657Z,7.10
2022-11-14T20:33:33.907Z,7.10
2022-11-14T20:35:07.412Z,7.10
2022-11-14T20:38:34.048Z,7.00
2022-11-14T20:40:07.544Z,7.10
2022-11-14T20:41:40.364Z,7.10
2022-11-14T20:43:24.724Z,7.20
2022-11-14T20:44:57.592Z,7.20
2022-11-14T20:46:30.422Z,7.30
2022-11-14T20:48:03.493Z,7.30
2022-11-14T20:49:36.336Z,7.50
2022-11-14T20:51:10.262Z,7.40
2022-11-14T20:52:44.743Z,7.50
2022-11-14T20:54:37.721Z,7.50
2022-11-14T20:56:16.322Z,7.50
2022-11-14T20:57:59.373Z,7.50
2022-11-14T20:59:51.497Z,7.40